Time;durP1;ratioP1;P1;durP2;ratioP2;P2;SDS_P1;SDS_P2;PMS_P1;PMS_P2;Temp;Humidity;BMP_temperature;BMP_pressure;BME280_temperature;BME280_humidity;BME280_pressure;Samples;Min_cycle;Max_cycle;Signal;HPM_P1;HPM_P2
2024/01/06 00:01:25;;;;;;;;;7.00;6.67;;;;;9.26;65.07;100355.78;5077374;28;45303;-78
2024/01/06 00:03:51;;;;;;;;;9.00;7.00;;;;;8.77;64.98;100277.34;5076162;28;45488;-80
2024/01/06 00:06:16;;;;;;;;;8.67;7.00;;;;;9.00;65.02;100312.31;5075659;28;46187;-78
2024/01/06 00:08:42;;;;;;;;;10.67;9.67;;;;;9.21;65.48;100352.75;5076153;28;45473;-77
2024/01/06 00:11:07;;;;;;;;;8.33;8.33;;;;;9.17;65.17;100356.63;5057537;28;45504;-78
2024/01/06 00:13:33;;;;;;;;;10.67;9.33;;;;;9.25;65.19;100364.72;5075529;28;45507;-76
2024/01/06 00:15:59;;;;;;;;;8.33;8.33;;;;;9.11;65.25;100346.63;5075045;28;45519;-78
2024/01/06 00:18:24;;;;;;;;;10.67;9.67;;;;;8.76;65.52;100275.69;5075490;28;45381;-78
2024/01/06 00:20:49;;;;;;;;;11.33;11.00;;;;;9.32;65.49;100367.63;5075892;28;45398;-77
2024/01/06 00:23:15;;;;;;;;;7.67;7.67;;;;;9.29;65.44;100355.50;5076027;28;45475;-79
2024/01/06 00:25:40;;;;;;;;;8.67;8.67;;;;;9.28;65.31;100345.88;5076387;28;45434;-77
2024/01/06 00:28:05;;;;;;;;;9.33;7.00;;;;;9.24;65.17;100339.19;5077049;28;45490;-78
2024/01/06 00:30:31;;;;;;;;;7.67;7.00;;;;;9.41;65.21;100366.75;5077084;28;45416;-77
2024/01/06 00:32:56;;;;;;;;;16.00;10.67;;;;;9.29;64.91;100339.56;5057589;28;45398;-76
2024/01/06 00:35:22;;;;;;;;;8.00;8.00;;;;;9.48;64.70;100372.31;5075398;28;45961;-79
2024/01/06 00:37:47;;;;;;;;;6.33;6.33;;;;;9.29;64.91;100342.22;5076220;28;45307;-79
2024/01/06 00:40:12;;;;;;;;;8.00;6.67;;;;;9.52;65.04;100371.03;5077196;28;45593;-77
2024/01/06 00:42:38;;;;;;;;;7.67;7.00;;;;;9.53;64.57;100375.38;5077967;28;45555;-78
2024/01/06 00:45:05;;;;;;;;;9.00;8.00;;;;;9.33;64.35;100333.00;5076492;28;45615;-78
2024/01/06 00:47:30;;;;;;;;;11.67;7.33;;;;;9.57;64.40;100377.56;5075749;28;45563;-78
2024/01/06 00:49:56;;;;;;;;;11.33;11.33;;;;;9.47;64.92;100360.03;5057249;28;45359;-78
2024/01/06 00:52:21;;;;;;;;;8.67;7.67;;;;;9.53;64.43;100372.72;5075348;28;45501;-79
2024/01/06 00:54:47;;;;;;;;;8.67;7.00;;;;;9.63;63.82;100387.63;5074952;28;45484;-78
2024/01/06 00:57:12;;;;;;;;;9.67;7.67;;;;;9.57;64.75;100374.09;5075123;28;45392;-78
2024/01/06 00:59:37;;;;;;;;;18.67;13.00;;;;;9.65;64.33;100384.81;5075786;28;45401;-77
2024/01/06 01:02:03;;;;;;;;;22.67;19.67;;;;;9.58;64.00;100373.09;5079554;28;45526;-78
2024/01/06 01:04:28;;;;;;;;;22.67;19.67;;;;;9.68;64.02;100395.16;5079579;28;46166;-77
2024/01/06 01:06:54;;;;;;;;;18.33;18.33;;;;;9.67;64.01;100396.13;5079037;28;45452;-78
2024/01/06 01:09:19;;;;;;;;;22.33;19.67;;;;;9.69;64.05;100399.47;5079970;28;45387;-78
2024/01/06 01:11:44;;;;;;;;;13.67;13.00;;;;;9.68;64.02;100393.31;5081222;28;45432;-79
2024/01/06 01:14:10;;;;;;;;;9.00;7.00;;;;;9.74;63.87;100397.19;5079884;28;45568;-76
2024/01/06 01:16:35;;;;;;;;;16.00;13.33;;;;;9.72;63.75;100401.81;5078288;28;45347;-78
2024/01/06 01:19:01;;;;;;;;;13.67;11.00;;;;;9.71;63.81;100400.16;5080447;28;45283;-79
2024/01/06 01:21:27;;;;;;;;;10.67;10.67;;;;;9.63;64.15;100382.31;5069011;28;45277;-79
2024/01/06 01:23:52;;;;;;;;;11.67;10.00;;;;;9.68;63.96;100395.97;5063705;28;47198;-77
2024/01/06 01:26:18;;;;;;;;;8.33;8.33;;;;;9.63;63.86;100398.25;5079949;28;45263;-78
2024/01/06 01:28:43;;;;;;;;;8.00;7.00;;;;;9.59;63.96;100401.31;5078634;28;45577;-77
2024/01/06 01:31:08;;;;;;;;;10.67;9.00;;;;;9.38;64.24;100378.47;5078009;28;45329;-78
2024/01/06 01:33:34;;;;;;;;;11.33;10.00;;;;;9.48;64.36;100404.16;5079144;28;45422;-78
2024/01/06 01:35:59;;;;;;;;;12.33;9.67;;;;;9.41;64.47;100410.06;5079543;28;45340;-79
2024/01/06 01:38:24;;;;;;;;;7.00;7.00;;;;;9.32;64.98;100405.59;5079663;28;45294;-77
2024/01/06 01:40:50;;;;;;;;;10.00;10.00;;;;;9.31;64.84;100397.78;5079896;28;45508;-76
2024/01/06 01:43:17;;;;;;;;;9.00;9.00;;;;;9.23;65.17;100400.34;5079226;28;45566;-77
2024/01/06 01:45:42;;;;;;;;;8.00;8.00;;;;;9.24;65.24;100413.47;5058646;28;45527;-78
2024/01/06 01:48:08;;;;;;;;;7.67;7.00;;;;;9.19;65.34;100412.19;5077396;28;45496;-76
2024/01/06 01:50:33;;;;;;;;;7.67;6.67;;;;;9.12;65.49;100404.81;5077738;28;45299;-76
2024/01/06 01:52:59;;;;;;;;;9.33;7.67;;;;;9.10;65.52;100404.13;5077053;28;46008;-78
2024/01/06 01:55:25;;;;;;;;;11.00;10.00;;;;;9.11;65.41;100416.41;5076857;28;45300;-77
2024/01/06 01:57:50;;;;;;;;;10.00;8.67;;;;;9.01;65.78;100407.66;5077333;28;45665;-77
2024/01/06 02:00:16;;;;;;;;;11.00;10.00;;;;;9.09;65.88;100425.47;5077095;28;45444;-77
2024/01/06 02:02:41;;;;;;;;;9.67;9.33;;;;;9.06;65.73;100426.59;5076958;28;45433;-78
2024/01/06 02:05:06;;;;;;;;;12.67;9.00;;;;;9.04;65.85;100427.72;5077238;28;45330;-77
2024/01/06 02:07:32;;;;;;;;;9.33;9.00;;;;;9.02;65.80;100429.69;5077308;28;45424;-78
2024/01/06 02:09:57;;;;;;;;;6.67;6.67;;;;;8.93;65.92;100414.63;5058917;28;45625;-76
2024/01/06 02:12:23;;;;;;;;;8.33;8.33;;;;;8.73;65.98;100385.47;5058086;28;46974;-77
2024/01/06 02:14:48;;;;;;;;;7.67;7.67;;;;;8.80;66.12;100399.81;5076469;28;45511;-76
2024/01/06 02:17:13;;;;;;;;;7.67;7.33;;;;;8.03;66.08;100283.28;5058715;28;45323;-77
2024/01/06 02:19:39;;;;;;;;;7.33;7.33;;;;;8.93;66.20;100441.13;5058600;28;45324;-77
2024/01/06 02:22:04;;;;;;;;;8.00;8.00;;;;;8.91;66.14;100441.28;5076937;28;45581;-76
2024/01/06 02:24:29;;;;;;;;;8.33;8.00;;;;;8.89;66.34;100442.41;5076711;28;45404;-77
2024/01/06 02:26:55;;;;;;;;;9.67;8.00;;;;;8.85;66.36;100441.84;5076581;28;45732;-76
2024/01/06 02:29:20;;;;;;;;;13.00;9.33;;;;;8.69;66.65;100420.34;5076249;28;45634;-76
2024/01/06 02:31:45;;;;;;;;;11.67;9.33;;;;;8.73;66.81;100433.19;5075887;28;46120;-77
2024/01/06 02:34:11;;;;;;;;;12.67;10.00;;;;;8.78;66.93;100451.31;5076232;28;45346;-77
2024/01/06 02:36:36;;;;;;;;;8.33;8.33;;;;;8.69;66.90;100439.75;5076638;28;45620;-76
2024/01/06 02:39:02;;;;;;;;;7.67;7.67;;;;;8.79;66.90;100460.94;5076556;28;45441;-76
2024/01/06 02:41:27;;;;;;;;;11.00;7.67;;;;;8.82;67.15;100465.97;5076773;28;45463;-78
2024/01/06 02:43:55;;;;;;;;;9.67;9.00;;;;;8.12;66.68;100337.22;5079909;28;45409;-75
2024/01/06 02:46:20;;;;;;;;;8.33;8.33;;;;;8.81;66.90;100445.75;5079649;28;45467;-76
2024/01/06 02:48:45;;;;;;;;;11.67;8.67;;;;;8.94;66.65;100461.38;5078116;28;45440;-76
2024/01/06 02:51:12;;;;;;;;;8.00;7.00;;;;;8.73;66.81;100429.69;5078599;28;46310;-77
2024/01/06 02:53:38;;;;;;;;;11.00;10.33;;;;;8.87;66.68;100439.88;5076822;28;45485;-78
2024/01/06 02:56:04;;;;;;;;;7.33;7.33;;;;;8.80;66.35;100422.84;5076492;28;45557;-78
2024/01/06 02:58:29;;;;;;;;;9.00;9.00;;;;;8.98;66.31;100446.84;5076863;28;45293;-77
2024/01/06 03:00:54;;;;;;;;;10.67;10.67;;;;;9.17;66.45;100475.16;5076908;28;46178;-76
2024/01/06 03:03:19;;;;;;;;;10.00;10.00;;;;;9.18;65.93;100476.81;5060180;28;45320;-77
2024/01/06 03:05:48;;;;;;;;;9.00;9.00;;;;;9.14;65.85;100476.28;5078390;28;45450;-76
2024/01/06 03:08:14;;;;;;;;;13.67;12.67;;;;;9.16;66.42;100469.00;5076183;28;46268;-77
2024/01/06 03:10:39;;;;;;;;;9.67;9.33;;;;;9.27;66.00;100486.59;5075878;28;45607;-79
2024/01/06 03:13:05;;;;;;;;;11.33;10.00;;;;;9.19;65.64;100478.50;5075879;28;45237;-77
2024/01/06 03:15:30;;;;;;;;;9.33;9.00;;;;;9.29;65.40;100484.66;5076318;28;45617;-77
2024/01/06 03:17:55;;;;;;;;;12.67;10.67;;;;;9.27;65.81;100490.09;5076367;28;45507;-79
2024/01/06 03:20:21;;;;;;;;;11.00;11.00;;;;;9.17;65.83;100486.59;5075962;28;46239;-77
2024/01/06 03:22:46;;;;;;;;;10.00;9.00;;;;;9.23;65.93;100501.13;5076124;28;45569;-77
2024/01/06 03:25:12;;;;;;;;;11.00;11.00;;;;;9.04;65.50;100460.38;5075556;28;45477;-77
2024/01/06 03:27:37;;;;;;;;;13.33;12.00;;;;;8.66;65.93;100396.78;5075528;28;45460;-78
2024/01/06 03:30:03;;;;;;;;;10.33;9.33;;;;;9.29;65.47;100496.09;5057070;28;47440;-78
2024/01/06 03:32:28;;;;;;;;;15.33;13.00;;;;;9.21;65.40;100488.03;5075660;28;45565;-77
2024/01/06 03:34:54;;;;;;;;;9.00;9.00;;;;;9.26;65.31;100479.63;5074846;28;45408;-75
2024/01/06 03:37:19;;;;;;;;;15.67;11.33;;;;;9.35;65.01;100500.81;5075501;28;45494;-75
2024/01/06 03:39:44;;;;;;;;;8.00;8.00;;;;;9.35;65.30;100505.28;5075624;28;46153;-76
2024/01/06 03:42:10;;;;;;;;;8.67;8.67;;;;;9.35;65.42;100502.63;5074950;28;45461;-78
2024/01/06 03:44:35;;;;;;;;;9.00;7.00;;;;;9.38;65.71;100510.31;5075023;28;45373;-77
2024/01/06 03:47:00;;;;;;;;;8.00;7.67;;;;;9.42;65.24;100512.56;5057235;28;45510;-77
2024/01/06 03:49:26;;;;;;;;;9.00;9.00;;;;;9.31;65.08;100499.44;5075257;28;46173;-76
2024/01/06 03:51:51;;;;;;;;;11.33;10.33;;;;;9.39;65.15;100501.38;5056896;28;45353;-75
2024/01/06 03:54:17;;;;;;;;;12.33;10.00;;;;;9.39;65.32;100494.25;5075177;28;45403;-76
2024/01/06 03:56:42;;;;;;;;;10.33;10.00;;;;;9.31;65.12;100494.13;5075527;28;45559;-77
2024/01/06 03:59:08;;;;;;;;;8.67;6.33;;;;;9.45;65.07;100514.09;5074946;28;45659;-77
2024/01/06 04:01:35;;;;;;;;;11.00;11.00;;;;;9.36;64.92;100502.50;5074816;28;45442;-76
2024/01/06 04:04:03;;;;;;;;;11.67;10.33;;;;;9.15;64.92;100477.94;5056862;28;45341;-77
2024/01/06 04:06:28;;;;;;;;;10.00;9.00;;;;;9.45;64.92;100522.88;5075128;28;45285;-77
2024/01/06 04:08:54;;;;;;;;;18.67;12.00;;;;;9.38;65.07;100505.84;5075589;28;46309;-76
2024/01/06 04:11:20;;;;;;;;;12.33;11.33;;;;;9.42;64.95;100512.56;5075179;28;45482;-76
2024/01/06 04:13:46;;;;;;;;;11.00;9.67;;;;;9.48;64.65;100516.44;5075142;28;45406;-77
2024/01/06 04:16:11;;;;;;;;;11.00;10.00;;;;;9.38;64.90;100495.22;5075076;28;45457;-77
2024/01/06 04:18:37;;;;;;;;;10.67;10.00;;;;;9.41;64.89;100513.53;5073627;28;46100;-76
2024/01/06 04:21:02;;;;;;;;;10.00;10.00;;;;;9.36;64.66;100505.16;5075001;28;45342;-78
2024/01/06 04:23:28;;;;;;;;;20.00;16.67;;;;;9.45;65.07;100516.75;5075175;28;45358;-78
2024/01/06 04:25:53;;;;;;;;;11.67;11.67;;;;;9.47;65.15;100521.91;5074976;28;45454;-78
2024/01/06 04:28:19;;;;;;;;;11.33;11.00;;;;;9.26;64.85;100493.72;5057154;28;47136;-79
2024/01/06 04:30:52;;;;;;;;;10.67;9.67;;;;;9.48;64.84;100528.88;5076068;28;45379;-78
2024/01/06 04:33:17;;;;;;;;;13.33;12.67;;;;;9.45;64.97;100528.19;5076410;28;45381;-76
2024/01/06 04:35:42;;;;;;;;;12.67;12.00;;;;;9.34;65.04;100515.06;5074569;28;45452;-77
2024/01/06 04:38:08;;;;;;;;;12.00;11.00;;;;;9.47;65.07;100540.47;5076000;28;45826;-79
2024/01/06 04:40:34;;;;;;;;;14.33;11.67;;;;;9.40;65.06;100541.03;5076388;28;45402;-77
2024/01/06 04:42:59;;;;;;;;;15.33;15.33;;;;;9.21;64.97;100518.97;5075781;28;45329;-77
2024/01/06 04:45:25;;;;;;;;;16.33;14.33;;;;;9.28;65.26;100528.91;5056417;28;45338;-78
2024/01/06 04:47:51;;;;;;;;;18.00;13.33;;;;;9.41;65.35;100541.84;5075260;28;45518;-76
2024/01/06 04:50:17;;;;;;;;;14.67;13.33;;;;;9.42;65.40;100533.78;5076905;28;45266;-77
2024/01/06 04:52:42;;;;;;;;;12.67;11.67;;;;;9.31;65.37;100510.03;5076165;28;45293;-78
2024/01/06 04:55:08;;;;;;;;;8.67;8.67;;;;;9.49;64.90;100547.31;5074673;28;45381;-76
2024/01/06 04:57:33;;;;;;;;;13.33;11.67;;;;;9.32;65.27;100514.38;5074982;28;46410;-79
2024/01/06 04:59:59;;;;;;;;;17.00;14.33;;;;;9.53;65.35;100547.88;5074604;28;45426;-77
2024/01/06 05:02:25;;;;;;;;;14.67;12.67;;;;;9.29;64.99;100509.34;5079685;28;45374;-76
2024/01/06 05:04:50;;;;;;;;;16.00;16.00;;;;;9.38;64.91;100524.41;5080833;28;45363;-78
2024/01/06 05:07:16;;;;;;;;;16.00;15.67;;;;;9.55;65.15;100559.16;5081418;27;45947;-77
2024/01/06 05:09:41;;;;;;;;;14.33;14.33;;;;;9.47;65.31;100545.78;5057512;28;45671;-75
2024/01/06 05:12:07;;;;;;;;;15.00;14.00;;;;;9.52;64.93;100548.84;5075778;28;45351;-79
2024/01/06 05:14:32;;;;;;;;;17.33;13.67;;;;;9.55;65.27;100559.16;5075862;28;45467;-77
2024/01/06 05:16:59;;;;;;;;;10.67;10.00;;;;;9.53;64.88;100566.44;5076697;28;46280;-75
2024/01/06 05:19:24;;;;;;;;;19.33;12.33;;;;;9.47;65.40;100578.47;5075735;28;45432;-78
2024/01/06 05:21:51;;;;;;;;;18.00;15.67;;;;;9.46;65.12;100566.19;5082205;28;45553;-78
2024/01/06 05:24:19;;;;;;;;;11.67;11.67;;;;;9.43;65.26;100577.91;5080731;28;45453;-76
2024/01/06 05:26:44;;;;;;;;;12.00;12.00;;;;;9.12;65.36;100520.66;5075115;28;45232;-76
2024/01/06 05:29:09;;;;;;;;;10.33;9.33;;;;;9.39;65.39;100581.81;5076726;28;45463;-76
2024/01/06 05:31:35;;;;;;;;;15.33;13.00;;;;;9.26;65.13;100549.44;5074923;28;46081;-77
2024/01/06 05:34:00;;;;;;;;;13.33;13.33;;;;;8.93;65.09;100488.84;5074277;28;45871;-78
2024/01/06 05:36:26;;;;;;;;;13.33;13.33;;;;;9.30;65.21;100556.13;5075463;28;45747;-77
2024/01/06 05:38:51;;;;;;;;;15.67;14.67;;;;;9.37;65.27;100569.66;5077276;28;45375;-77
2024/01/06 05:41:17;;;;;;;;;13.33;12.00;;;;;9.27;65.63;100552.91;5077415;28;45236;-78
2024/01/06 05:43:43;;;;;;;;;13.33;12.67;;;;;8.84;65.27;100491.38;5057774;28;45578;-77
2024/01/06 05:46:10;;;;;;;;;15.33;11.00;;;;;9.15;65.18;100542.44;5073198;28;46499;-76
2024/01/06 05:48:35;;;;;;;;;15.67;14.00;;;;;9.17;65.62;100560.88;5076966;28;45418;-78
2024/01/06 05:51:01;;;;;;;;;13.00;13.00;;;;;9.21;65.38;100570.25;5076874;28;45425;-76
2024/01/06 05:53:26;;;;;;;;;15.00;13.00;;;;;8.93;65.36;100542.72;5077155;28;45345;-78
2024/01/06 05:55:52;;;;;;;;;9.00;9.00;;;;;8.84;65.59;100539.09;5076651;28;45365;-76
2024/01/06 05:58:17;;;;;;;;;14.00;14.00;;;;;8.66;65.71;100535.44;5076704;28;45299;-78
2024/01/06 06:00:42;;;;;;;;;13.33;10.67;;;;;9.01;65.53;100587.09;5077039;28;45611;-76
2024/01/06 06:03:08;;;;;;;;;10.67;10.67;;;;;8.05;65.47;100445.47;5076763;28;45532;-77
2024/01/06 06:05:33;;;;;;;;;8.67;7.67;;;;;8.62;65.91;100555.22;5076255;28;46153;-77
2024/01/06 06:07:59;;;;;;;;;10.00;10.00;;;;;8.86;65.94;100615.00;5076553;28;45504;-77
2024/01/06 06:10:29;;;;;;;;;11.00;10.00;;;;;8.71;65.84;100594.16;5076667;28;45489;-77
2024/01/06 06:12:55;;;;;;;;;13.00;9.00;;;;;8.62;65.45;100583.56;5076531;28;46333;-77
2024/01/06 06:15:20;;;;;;;;;13.00;9.33;;;;;8.56;65.24;100582.25;5075967;28;46024;-80
2024/01/06 06:17:46;;;;;;;;;12.33;10.67;;;;;8.60;65.41;100588.97;5076300;28;45335;-77
2024/01/06 06:20:11;;;;;;;;;9.00;9.00;;;;;8.67;65.41;100600.72;5076788;28;45304;-77
2024/01/06 06:22:37;;;;;;;;;8.33;7.67;;;;;8.79;65.38;100639.38;5076733;28;45564;-77
2024/01/06 06:25:03;;;;;;;;;9.00;9.00;;;;;8.57;65.17;100599.81;5076191;28;45385;-80
2024/01/06 06:27:29;;;;;;;;;4.67;4.67;;;;;8.71;65.29;100627.78;5076441;28;45436;-78
2024/01/06 06:29:56;;;;;;;;;9.00;9.00;;;;;8.86;65.25;100646.81;5057897;28;45383;-78
2024/01/06 06:32:21;;;;;;;;;10.67;10.67;;;;;8.82;64.69;100639.13;5057781;28;45636;-76
2024/01/06 06:34:46;;;;;;;;;6.00;6.00;;;;;8.61;64.97;100605.69;5075913;28;45422;-76
2024/01/06 06:37:12;;;;;;;;;8.00;8.00;;;;;8.93;64.82;100658.53;5075898;28;45406;-77
2024/01/06 06:39:37;;;;;;;;;6.33;6.33;;;;;8.89;64.30;100654.47;5076427;28;45601;-78
2024/01/06 06:42:03;;;;;;;;;9.00;8.00;;;;;8.90;64.24;100643.75;5076558;28;45276;-77
2024/01/06 06:44:29;;;;;;;;;8.00;8.00;;;;;8.91;64.29;100642.75;5058343;28;46120;-76
2024/01/06 06:46:55;;;;;;;;;8.67;8.00;;;;;8.77;64.11;100614.81;5076868;28;45446;-78
2024/01/06 06:49:20;;;;;;;;;11.00;9.33;;;;;9.09;64.04;100664.16;5076486;28;45471;-77
2024/01/06 06:51:49;;;;;;;;;9.67;9.33;;;;;9.06;63.90;100667.09;5058044;28;45417;-78
2024/01/06 06:54:15;;;;;;;;;7.67;6.67;;;;;9.00;64.04;100665.81;5076525;28;47059;-79
2024/01/06 06:56:42;;;;;;;;;8.00;8.00;;;;;8.90;64.04;100649.03;5077401;28;45517;-76
2024/01/06 06:59:07;;;;;;;;;7.67;7.67;;;;;9.02;64.09;100679.78;5076652;28;45363;-78
2024/01/06 07:01:32;;;;;;;;;7.67;7.00;;;;;8.82;64.26;100652.38;5057444;28;45542;-77
2024/01/06 07:03:58;;;;;;;;;8.67;5.33;;;;;8.94;64.03;100674.31;5075667;28;45988;-78
2024/01/06 07:06:23;;;;;;;;;9.67;7.00;;;;;8.97;63.84;100670.53;5075678;28;45528;-78
2024/01/06 07:08:49;;;;;;;;;9.67;9.67;;;;;9.09;63.52;100690.69;5075785;28;45313;-75
2024/01/06 07:11:18;;;;;;;;;8.00;6.00;;;;;8.98;63.83;100669.56;5076314;28;45660;-78
2024/01/06 07:13:43;;;;;;;;;9.67;7.00;;;;;9.13;63.41;100703.53;5057161;28;47543;-78
2024/01/06 07:16:08;;;;;;;;;7.33;6.00;;;;;9.01;63.13;100678.13;5075155;28;45475;-77
2024/01/06 07:18:34;;;;;;;;;7.00;7.00;;;;;9.09;63.03;100699.47;5076151;28;45399;-79
2024/01/06 07:20:59;;;;;;;;;9.00;7.00;;;;;8.88;63.06;100674.00;5057570;28;45622;-78
2024/01/06 07:23:24;;;;;;;;;7.00;5.67;;;;;9.08;63.01;100723.47;5075162;28;46197;-75
2024/01/06 07:25:50;;;;;;;;;7.00;6.00;;;;;9.03;63.18;100715.09;5076327;28;45410;-77
2024/01/06 07:28:15;;;;;;;;;7.00;7.00;;;;;9.01;63.32;100720.53;5076969;28;45468;-79
2024/01/06 07:30:41;;;;;;;;;6.67;6.00;;;;;8.83;63.49;100691.16;5075961;28;45532;-78
2024/01/06 07:33:06;;;;;;;;;14.67;8.67;;;;;8.82;63.93;100699.25;5075690;28;45631;-77
2024/01/06 07:35:31;;;;;;;;;8.67;7.00;;;;;9.01;63.99;100732.94;5075569;28;45397;-76
2024/01/06 07:37:57;;;;;;;;;8.00;6.67;;;;;8.87;63.89;100707.66;5075727;28;45386;-78
2024/01/06 07:40:23;;;;;;;;;7.33;6.33;;;;;9.11;63.67;100737.31;5075513;28;45456;-78
2024/01/06 07:42:48;;;;;;;;;7.67;7.00;;;;;9.05;63.76;100732.56;5075926;28;45989;-78
2024/01/06 07:45:14;;;;;;;;;8.67;6.00;;;;;8.82;63.56;100689.50;5076628;28;45338;-76
2024/01/06 07:47:39;;;;;;;;;5.00;5.00;;;;;8.70;63.58;100669.34;5076298;28;45540;-78
2024/01/06 07:50:05;;;;;;;;;6.00;4.33;;;;;9.18;63.30;100736.75;5075319;28;45348;-78
2024/01/06 07:52:31;;;;;;;;;7.00;5.67;;;;;9.19;63.15;100739.28;5075375;28;47213;-77
2024/01/06 07:54:56;;;;;;;;;8.00;5.00;;;;;9.31;63.05;100747.97;5075026;28;45426;-76
2024/01/06 07:57:21;;;;;;;;;6.00;5.00;;;;;8.72;62.85;100659.44;5075382;28;45469;-78
2024/01/06 07:59:47;;;;;;;;;11.33;6.33;;;;;9.26;62.64;100755.50;5075076;28;46125;-77
2024/01/06 08:02:12;;;;;;;;;6.00;6.00;;;;;8.93;62.43;100701.78;5075730;28;45289;-78
2024/01/06 08:04:37;;;;;;;;;6.67;5.00;;;;;9.28;62.90;100764.16;5075928;28;45540;-77
2024/01/06 08:07:03;;;;;;;;;7.00;6.00;;;;;9.28;62.40;100761.53;5078284;28;45565;-78
2024/01/06 08:09:28;;;;;;;;;5.33;5.33;;;;;9.09;62.49;100733.97;5078710;28;45434;-79
2024/01/06 08:11:54;;;;;;;;;4.33;4.33;;;;;9.33;62.64;100775.22;5077340;28;45399;-77
2024/01/06 08:14:19;;;;;;;;;5.00;5.00;;;;;9.25;62.36;100754.69;5075710;28;45393;-80
2024/01/06 08:16:44;;;;;;;;;5.67;4.67;;;;;9.33;62.23;100781.34;5075476;28;45458;-78
2024/01/06 08:19:10;;;;;;;;;8.00;6.00;;;;;9.27;61.82;100773.94;5075254;28;45447;-78
2024/01/06 08:21:35;;;;;;;;;10.67;7.00;;;;;9.08;61.90;100747.34;5075154;28;46046;-78
2024/01/06 08:24:01;;;;;;;;;6.67;5.33;;;;;9.31;61.89;100791.25;5074687;28;45440;-77
2024/01/06 08:26:26;;;;;;;;;6.00;6.00;;;;;9.28;61.24;100786.22;5075203;28;45382;-77
2024/01/06 08:28:52;;;;;;;;;9.00;6.67;;;;;9.24;61.13;100792.78;5075103;28;45319;-77
2024/01/06 08:31:17;;;;;;;;;6.33;5.33;;;;;9.26;61.42;100792.66;5075538;28;45518;-78
2024/01/06 08:33:43;;;;;;;;;9.00;7.00;;;;;9.18;61.39;100785.34;5075658;28;45384;-78
2024/01/06 08:36:09;;;;;;;;;8.00;7.00;;;;;9.27;61.45;100797.81;5075682;28;45429;-76
2024/01/06 08:38:35;;;;;;;;;5.00;5.00;;;;;9.26;61.12;100801.44;5076427;28;45430;-78
2024/01/06 08:41:01;;;;;;;;;5.00;5.00;;;;;9.24;60.79;100800.75;5075433;28;45479;-77
2024/01/06 08:43:26;;;;;;;;;7.33;7.00;;;;;9.17;60.99;100788.13;5058267;28;45548;-78
2024/01/06 08:45:52;;;;;;;;;6.00;5.67;;;;;8.65;60.69;100700.72;5080582;28;45215;-78
2024/01/06 08:48:18;;;;;;;;;4.67;4.67;;;;;9.33;60.77;100810.53;5079688;28;45482;-77
2024/01/06 08:50:45;;;;;;;;;8.00;5.00;;;;;9.21;60.55;100782.44;5077941;28;45439;-78
2024/01/06 08:53:11;;;;;;;;;9.00;7.67;;;;;9.36;60.42;100810.25;5058508;28;45422;-78
2024/01/06 08:55:36;;;;;;;;;7.00;7.00;;;;;9.45;60.46;100820.09;5075532;28;45362;-79
2024/01/06 08:58:01;;;;;;;;;6.33;6.33;;;;;9.50;60.68;100826.81;5057663;28;45526;-78
2024/01/06 09:00:27;;;;;;;;;8.00;7.00;;;;;9.38;60.42;100792.41;5075960;28;46318;-80
2024/01/06 09:02:52;;;;;;;;;7.00;7.00;;;;;9.35;59.92;100791.84;5075596;28;45375;-78
2024/01/06 09:05:18;;;;;;;;;5.33;5.33;;;;;9.54;60.05;100813.13;5057329;28;45828;-78
2024/01/06 09:07:44;;;;;;;;;7.00;7.00;;;;;9.54;60.05;100809.63;5075979;28;45355;-79
2024/01/06 09:10:10;;;;;;;;;5.33;5.00;;;;;9.18;59.67;100748.22;5076890;28;46310;-80
2024/01/06 09:12:35;;;;;;;;;6.33;5.33;;;;;9.00;59.45;100716.19;5077402;28;45399;-78
2024/01/06 09:15:00;;;;;;;;;5.33;4.33;;;;;9.73;59.65;100839.72;5076053;28;45837;-79
2024/01/06 09:17:26;;;;;;;;;9.00;6.67;;;;;9.77;59.17;100834.97;5076632;28;45399;-77
2024/01/06 09:19:53;;;;;;;;;7.33;5.33;;;;;9.37;59.61;100774.78;5058167;28;45501;-77
2024/01/06 09:22:19;;;;;;;;;7.00;5.00;;;;;9.82;58.98;100853.16;5077306;28;45370;-77
2024/01/06 09:24:44;;;;;;;;;3.33;3.33;;;;;9.87;58.93;100845.63;5060749;28;45622;-77
2024/01/06 09:27:10;;;;;;;;;5.00;3.67;;;;;9.34;58.50;100755.66;5078728;28;45464;-78
2024/01/06 09:29:35;;;;;;;;;4.33;3.33;;;;;9.73;58.77;100818.47;5078059;28;45480;-77
2024/01/06 09:32:02;;;;;;;;;6.00;6.00;;;;;9.34;58.26;100751.19;5077944;28;45485;-76
2024/01/06 09:34:27;;;;;;;;;5.33;4.00;;;;;10.00;57.85;100860.31;5078168;28;45387;-78
2024/01/06 09:36:52;;;;;;;;;4.00;4.00;;;;;9.98;57.86;100862.25;5077946;28;45399;-78
2024/01/06 09:39:18;;;;;;;;;3.33;3.33;;;;;9.68;57.46;100803.94;5077606;28;46168;-79
2024/01/06 09:41:44;;;;;;;;;6.67;4.00;;;;;9.77;56.76;100824.34;5060127;28;45680;-78
2024/01/06 09:44:09;;;;;;;;;5.67;4.67;;;;;9.95;56.84;100856.38;5077952;28;45438;-78
2024/01/06 09:46:35;;;;;;;;;3.33;3.33;;;;;9.89;57.13;100844.50;5080790;28;45329;-79
2024/01/06 09:49:01;;;;;;;;;5.00;5.00;;;;;10.05;56.82;100860.75;5080126;28;46172;-78
2024/01/06 09:51:27;;;;;;;;;6.33;5.00;;;;;9.98;56.52;100864.06;5079519;28;45433;-79
2024/01/06 09:54:00;;;;;;;;;4.33;4.33;;;;;10.00;56.67;100860.31;5080272;28;45480;-77
2024/01/06 09:56:28;;;;;;;;;6.00;4.00;;;;;10.12;56.59;100876.13;5062073;28;45479;-78
2024/01/06 09:58:55;;;;;;;;;3.75;3.00;;;;;10.16;55.80;100872.22;5077164;28;46356;-79
2024/01/06 10:01:22;;;;;;;;;4.67;3.67;;;;;10.20;55.74;100876.25;5059634;28;45362;-78
2024/01/06 10:03:48;;;;;;;;;2.67;2.67;;;;;10.00;55.55;100862.13;5078816;28;45616;-78
2024/01/06 10:06:14;;;;;;;;;4.00;4.00;;;;;10.13;55.83;100868.03;5079556;28;45402;-79
2024/01/06 10:08:48;;;;;;;;;8.33;4.67;;;;;10.23;55.37;100871.56;5062020;28;46222;-79
2024/01/06 10:11:14;;;;;;;;;3.00;3.00;;;;;10.44;55.02;100882.06;5060057;28;45436;-78
2024/01/06 10:13:40;;;;;;;;;4.00;4.00;;;;;10.30;54.72;100846.13;5077975;28;45315;-76
2024/01/06 10:16:06;;;;;;;;;3.00;3.00;;;;;10.33;55.45;100847.66;5077508;28;45393;-79
2024/01/06 10:18:31;;;;;;;;;5.00;3.67;;;;;10.13;54.70;100796.28;5059278;28;45727;-80
2024/01/06 10:20:58;;;;;;;;;2.00;2.00;;;;;10.46;54.85;100845.56;5077946;28;45453;-78
2024/01/06 10:23:23;;;;;;;;;3.00;3.00;;;;;10.67;54.68;100872.00;5077718;28;45499;-78
2024/01/06 10:25:54;;;;;;;;;6.67;3.67;;;;;10.58;54.51;100864.84;5079106;28;45399;-78
2024/01/06 10:28:22;;;;;;;;;8.33;5.67;;;;;10.82;54.55;100907.81;5077374;28;45462;-78
2024/01/06 10:30:48;;;;;;;;;3.67;3.67;;;;;10.55;54.44;100847.34;5077877;28;45430;-79
2024/01/06 10:33:13;;;;;;;;;4.33;3.33;;;;;10.82;54.37;100891.00;5077906;28;45461;-77
2024/01/06 10:35:40;;;;;;;;;4.67;3.00;;;;;10.74;54.07;100882.88;5078296;28;45522;-79
2024/01/06 10:38:07;;;;;;;;;3.00;3.00;;;;;10.78;54.55;100894.91;5059892;28;46579;-79
2024/01/06 10:40:32;;;;;;;;;3.00;2.00;;;;;9.90;53.54;100763.84;5077660;28;45509;-77
2024/01/06 10:43:00;;;;;;;;;2.33;2.33;;;;;10.48;54.36;100867.53;5078265;28;45391;-79
2024/01/06 10:45:28;;;;;;;;;3.67;3.67;;;;;10.60;54.45;100894.78;5077508;28;45369;-79
2024/01/06 10:47:54;;;;;;;;;4.00;4.00;;;;;10.68;54.15;100894.94;5079308;28;45318;-77
2024/01/06 10:50:21;;;;;;;;;4.33;4.33;;;;;10.66;53.54;100895.09;5081580;28;45452;-80
2024/01/06 10:52:48;;;;;;;;;4.00;3.00;;;;;10.69;54.24;100895.78;5082092;28;45301;-79
2024/01/06 10:55:17;;;;;;;;;5.00;3.00;;;;;10.08;53.35;100809.16;5081460;28;45444;-77
2024/01/06 10:57:44;;;;;;;;;4.00;4.00;;;;;10.61;53.99;100886.69;5060711;28;46297;-77
2024/01/06 11:00:11;;;;;;;;;4.00;4.00;;;;;10.53;54.12;100869.75;5077308;28;45462;-79
2024/01/06 11:02:38;;;;;;;;;3.00;3.00;;;;;10.74;53.55;100904.16;5058797;28;45458;-79
2024/01/06 11:05:10;;;;;;;;;2.00;2.00;;;;;10.58;53.63;100878.97;5058796;28;45465;-79
2024/01/06 11:07:37;;;;;;;;;2.00;2.00;;;;;10.66;54.08;100897.75;5076976;28;46030;-78
2024/01/06 11:10:10;;;;;;;;;5.00;3.33;;;;;10.57;53.92;100893.25;5077066;28;45485;-78
2024/01/06 11:12:36;;;;;;;;;3.00;3.00;;;;;10.34;53.73;100854.63;5059327;28;45571;-78
2024/01/06 11:15:01;;;;;;;;;3.00;3.00;;;;;10.53;54.35;100881.22;5077041;28;45586;-78
2024/01/06 11:17:58;;;;;;;;;2.00;2.00;;;;;10.65;53.98;100890.75;5058774;28;46845;-77
2024/01/06 11:20:24;;;;;;;;;3.67;2.33;;;;;10.64;53.95;100894.38;5058172;28;45487;-79